Terminal Aerodrome Forecast
Issued by NWS Wilmington, NC

Home | Current Version | Previous Version | Text Only | Print | Product List | Glossary On
Versions: 1 2 3 4 5 6 7 8 9 10 11 12 13 14 15 16
000
FTUS42 KILM 010500
TAFMYR
TAF
KMYR 010520Z 0106/0206 02008KT P6SM VCSH BKN016 BKN080
      TEMPO 0110/0114 5SM -RA BR BKN007
     FM011600 VRB05KT P6SM VCSH SCT010 BKN025
     FM012200 03004KT 4SM -RA BKN008
     FM020300 34005KT 3SM -RA BR BKN004
      AMD LTD TO CLD VIS AND WIND TIL 011100=

USA.gov is the U.S. government's official web portal to all federal, state and local government web resources and services.